Time;durP1;ratioP1;P1;durP2;ratioP2;P2;SDS_P1;SDS_P2;PMS_P1;PMS_P2;Temp;Humidity;BMP_temperature;BMP_pressure;BME280_temperature;BME280_humidity;BME280_pressure;Samples;Min_cycle;Max_cycle;Signal;HPM_P1;HPM_P2
2021/09/03 00:02:23;;;;;;;6.13;3.33;;;21.30;99.90;;;;;;5030766;28;20273;-73
2021/09/03 00:04:51;;;;;;;4.95;3.13;;;21.30;99.90;;;;;;5030931;28;20667;-74
2021/09/03 00:07:18;;;;;;;4.00;3.50;;;21.30;99.90;;;;;;5031073;28;20211;-76
2021/09/03 00:09:45;;;;;;;5.15;2.88;;;21.90;99.90;;;;;;5030862;28;20231;-73
2021/09/03 00:12:12;;;;;;;8.88;3.95;;;21.30;99.90;;;;;;5031028;28;20269;-72
2021/09/03 00:14:39;;;;;;;4.35;2.50;;;;;;;;;;5030704;28;20285;-74
2021/09/03 00:17:07;;;;;;;6.68;3.28;;;22.00;99.90;;;;;;5031180;28;20662;-71
2021/09/03 00:19:34;;;;;;;7.72;3.67;;;21.40;99.90;;;;;;5030837;28;20215;-72
2021/09/03 00:22:02;;;;;;;7.57;3.88;;;21.40;99.90;;;;;;5030971;28;20622;-75
2021/09/03 00:24:29;;;;;;;10.68;4.10;;;21.40;99.90;;;;;;5030569;28;20207;-75
2021/09/03 00:26:56;;;;;;;4.78;3.53;;;21.40;99.90;;;;;;5030863;28;20204;-79
2021/09/03 00:29:23;;;;;;;5.28;3.30;;;21.40;99.90;;;;;;5030460;28;20227;-74
2021/09/03 00:31:50;;;;;;;7.32;3.42;;;21.40;99.90;;;;;;5030807;28;20211;-81
2021/09/03 00:34:17;;;;;;;7.03;3.25;;;21.40;99.90;;;;;;5031391;28;20269;-73
2021/09/03 00:36:44;;;;;;;5.25;4.15;;;21.50;99.90;;;;;;5030933;28;20215;-73
2021/09/03 00:39:13;;;;;;;7.47;4.13;;;21.50;99.90;;;;;;5017480;28;20207;-70
2021/09/03 00:41:40;;;;;;;4.53;2.78;;;21.40;99.90;;;;;;5030571;28;20729;-73
2021/09/03 00:44:07;;;;;;;5.38;3.10;;;21.50;99.90;;;;;;5029908;28;20241;-73
2021/09/03 00:46:34;;;;;;;6.82;3.70;;;21.50;99.90;;;;;;5030713;28;20219;-76
2021/09/03 00:49:01;;;;;;;8.65;3.67;;;21.50;99.90;;;;;;5023827;28;20301;-86
2021/09/03 00:51:28;;;;;;;6.68;3.42;;;21.50;99.90;;;;;;5030284;28;20261;-70
2021/09/03 00:53:55;;;;;;;4.57;3.28;;;21.50;99.90;;;;;;5030090;28;20628;-71
2021/09/03 00:56:23;;;;;;;8.73;3.85;;;21.60;99.90;;;;;;5029739;28;20212;-78
2021/09/03 00:58:50;;;;;;;4.20;2.67;;;21.50;99.90;;;;;;5030444;28;20261;-71
2021/09/03 01:01:20;;;;;;;5.55;3.30;;;21.50;99.90;;;;;;5030081;28;20212;-72
2021/09/03 01:03:47;;;;;;;7.93;3.40;;;21.50;99.90;;;;;;5030373;28;20242;-72
2021/09/03 01:06:14;;;;;;;3.83;3.05;;;21.50;99.90;;;;;;5030592;28;20211;-72
2021/09/03 01:08:41;;;;;;;3.25;2.95;;;21.50;99.90;;;;;;5030051;28;20227;-74
2021/09/03 01:11:08;;;;;;;4.32;3.20;;;21.40;99.90;;;;;;5030754;28;20210;-77
2021/09/03 01:13:37;;;;;;;3.90;2.63;;;21.30;99.90;;;;;;5030371;28;20269;-71
2021/09/03 01:16:04;;;;;;;5.93;3.30;;;21.20;99.90;;;;;;5030309;28;20211;-80
2021/09/03 01:18:31;;;;;;;4.15;2.55;;;21.20;99.90;;;;;;5030132;28;20265;-81
2021/09/03 01:20:58;;;;;;;4.57;3.05;;;21.10;99.90;;;;;;5030251;28;20239;-72
2021/09/03 01:23:26;;;;;;;5.38;2.88;;;21.10;99.90;;;;;;5029551;28;20281;-80
2021/09/03 01:25:53;;;;;;;3.63;3.13;;;21.10;99.90;;;;;;5030459;28;20295;-72
2021/09/03 01:28:20;;;;;;;5.43;2.55;;;21.10;99.90;;;;;;5016013;28;20267;-72
2021/09/03 01:30:47;;;;;;;4.32;2.55;;;21.20;99.90;;;;;;5030085;28;20265;-72
2021/09/03 01:33:14;;;;;;;5.88;2.63;;;21.20;99.90;;;;;;5029858;28;20208;-71
2021/09/03 01:35:41;;;;;;;5.47;2.78;;;21.20;99.90;;;;;;5030266;28;20585;-78
2021/09/03 01:38:08;;;;;;;5.35;2.90;;;21.20;99.90;;;;;;5029419;28;20277;-72
2021/09/03 01:40:37;;;;;;;4.72;2.40;;;21.20;99.90;;;;;;5029683;28;20215;-78
2021/09/03 01:43:04;;;;;;;4.38;2.70;;;21.20;99.90;;;;;;5030096;28;20219;-72
2021/09/03 01:45:31;;;;;;;5.97;2.63;;;21.20;99.90;;;;;;5029674;28;20250;-70
2021/09/03 01:47:58;;;;;;;5.32;3.05;;;21.20;99.90;;;;;;5029897;28;20207;-70
2021/09/03 01:50:25;;;;;;;4.00;2.63;;;21.20;99.90;;;;;;5029404;28;20231;-70
2021/09/03 01:52:52;;;;;;;3.00;2.70;;;21.20;99.90;;;;;;5030014;28;20211;-70
2021/09/03 01:55:19;;;;;;;4.97;2.65;;;21.20;99.90;;;;;;5029798;28;20211;-70
2021/09/03 01:57:47;;;;;;;3.33;2.55;;;21.10;99.90;;;;;;5033740;28;20211;-69
2021/09/03 02:00:16;;;;;;;4.60;2.67;;;21.20;99.90;;;;;;5033317;28;20219;-70
2021/09/03 02:02:43;;;;;;;4.85;2.47;;;21.20;99.90;;;;;;5033235;28;20203;-75
2021/09/03 02:05:11;;;;;;;5.20;2.33;;;21.20;99.90;;;;;;5033713;28;20212;-70
2021/09/03 02:07:38;;;;;;;3.97;2.75;;;21.20;99.90;;;;;;5033455;28;20207;-70
2021/09/03 02:10:06;;;;;;;3.50;2.60;;;21.20;99.90;;;;;;5033615;28;20270;-70
2021/09/03 02:12:33;;;;;;;3.85;2.30;;;21.20;99.90;;;;;;5033031;28;20476;-74
2021/09/03 02:15:01;;;;;;;5.40;2.85;;;21.10;99.90;;;;;;5033265;28;20736;-74
2021/09/03 02:17:28;;;;;;;4.80;3.00;;;21.10;99.90;;;;;;5032781;28;20267;-71
2021/09/03 02:19:55;;;;;;;5.35;3.42;;;21.10;99.90;;;;;;5033186;28;20258;-71
2021/09/03 02:22:23;;;;;;;5.60;3.70;;;;;;;;;;5032571;28;20207;-74
2021/09/03 02:24:50;;;;;;;4.28;2.83;;;;;;;;;;5033103;28;20663;-71
2021/09/03 02:27:17;;;;;;;3.95;3.58;;;;;;;;;;5032952;28;20258;-72
2021/09/03 02:29:44;;;;;;;3.10;2.08;;;;;;;;;;5032971;28;20277;-71
2021/09/03 02:32:16;;;;;;;6.43;2.72;;;21.10;99.90;;;;;;5033155;28;20264;-72
2021/09/03 02:34:43;;;;;;;7.10;3.55;;;21.10;99.90;;;;;;5032880;28;20638;-71
2021/09/03 02:37:10;;;;;;;4.32;2.53;;;21.10;99.90;;;;;;5033539;28;20270;-71
2021/09/03 02:39:37;;;;;;;8.38;4.03;;;21.10;99.90;;;;;;5032298;28;20628;-71
2021/09/03 02:42:05;;;;;;;2.58;2.38;;;21.00;99.90;;;;;;5033035;28;20262;-85
2021/09/03 02:44:32;;;;;;;4.07;2.58;;;21.10;99.90;;;;;;5032540;28;20261;-76
2021/09/03 02:46:59;;;;;;;3.97;2.70;;;21.10;99.90;;;;;;5032557;28;20215;-71
2021/09/03 02:49:27;;;;;;;4.05;2.70;;;21.10;99.90;;;;;;5032249;28;20278;-84
2021/09/03 02:51:54;;;;;;;6.55;2.58;;;21.00;99.90;;;;;;5033008;28;20737;-81
2021/09/03 02:54:21;;;;;;;4.75;2.35;;;21.00;99.90;;;;;;5032488;28;20208;-80
2021/09/03 02:56:48;;;;;;;3.45;2.50;;;21.00;99.90;;;;;;5032424;28;20215;-71
2021/09/03 02:59:15;;;;;;;5.43;2.47;;;21.00;99.90;;;;;;5032418;28;20625;-85
2021/09/03 03:01:42;;;;;;;4.68;2.45;;;21.00;99.90;;;;;;5033275;28;20219;-72
2021/09/03 03:04:08;;;;;;;3.10;2.00;;;21.00;99.90;;;;;;5032383;28;20760;-72
2021/09/03 03:06:37;;;;;;;6.45;2.67;;;21.00;99.90;;;;;;5031719;28;20749;-75
2021/09/03 03:09:04;;;;;;;2.60;2.40;;;20.90;99.90;;;;;;5032250;28;20278;-79
2021/09/03 03:11:31;;;;;;;4.50;3.05;;;20.90;99.90;;;;;;5031861;28;20219;-81
2021/09/03 03:14:03;;;;;;;4.57;3.30;;;20.90;99.90;;;;;;5031825;28;20269;-81
2021/09/03 03:16:30;;;;;;;3.63;2.42;;;21.00;99.90;;;;;;5031785;28;20265;-70
2021/09/03 03:18:57;;;;;;;3.42;2.60;;;20.90;99.90;;;;;;5031922;28;20204;-82
2021/09/03 03:21:24;;;;;;;4.70;2.92;;;20.80;99.90;;;;;;5031932;28;20203;-70
2021/09/03 03:23:52;;;;;;;3.90;2.70;;;20.80;99.90;;;;;;5031999;28;20678;-70
2021/09/03 03:26:19;;;;;;;4.00;2.58;;;20.70;99.90;;;;;;5018124;28;20237;-78
2021/09/03 03:28:46;;;;;;;4.32;2.80;;;20.80;99.90;;;;;;5031833;28;20270;-70
2021/09/03 03:31:13;;;;;;;3.47;2.70;;;20.80;99.90;;;;;;5031811;28;20258;-70
2021/09/03 03:33:40;;;;;;;5.38;2.47;;;20.80;99.90;;;;;;5031699;28;20211;-74
2021/09/03 03:36:07;;;;;;;2.28;2.00;;;20.80;99.90;;;;;;5031772;28;20274;-80
2021/09/03 03:38:34;;;;;;;3.17;2.30;;;20.80;99.90;;;;;;5031269;28;20258;-72
2021/09/03 03:41:02;;;;;;;3.28;2.70;;;20.60;99.90;;;;;;5031664;28;20219;-70
2021/09/03 03:43:29;;;;;;;2.95;2.65;;;20.60;99.90;;;;;;5031387;28;20253;-74
2021/09/03 03:45:56;;;;;;;2.83;2.40;;;20.60;99.90;;;;;;5031533;28;20269;-77
2021/09/03 03:48:26;;;;;;;3.08;2.35;;;20.50;99.90;;;;;;5017215;28;20204;-79
2021/09/03 03:50:53;;;;;;;3.33;3.00;;;20.50;99.90;;;;;;5031653;28;20297;-73
2021/09/03 03:53:20;;;;;;;4.05;2.40;;;20.40;99.90;;;;;;5031052;28;20674;-72
2021/09/03 03:55:47;;;;;;;2.60;2.05;;;20.50;99.90;;;;;;5031386;28;20635;-79
2021/09/03 03:58:16;;;;;;;4.43;2.60;;;20.40;99.90;;;;;;5031101;28;20639;-72
2021/09/03 04:00:44;;;;;;;2.67;2.47;;;20.50;99.90;;;;;;5031533;28;20593;-73
2021/09/03 04:03:11;;;;;;;2.50;2.30;;;20.40;99.90;;;;;;5031643;28;20215;-71
2021/09/03 04:05:38;;;;;;;4.25;2.22;;;20.30;99.90;;;;;;5030978;28;20212;-73
2021/09/03 04:08:06;;;;;;;2.20;2.10;;;20.30;99.90;;;;;;5031146;28;20214;-81
2021/09/03 04:10:33;;;;;;;3.42;2.70;;;20.40;99.90;;;;;;5030452;28;20235;-73
2021/09/03 04:13:00;;;;;;;3.60;2.97;;;20.40;99.90;;;;;;5031442;28;20253;-74
2021/09/03 04:15:28;;;;;;;4.13;2.55;;;20.40;99.90;;;;;;5031058;28;20207;-83
2021/09/03 04:17:55;;;;;;;5.05;2.20;;;20.40;99.90;;;;;;5030557;28;20211;-83
2021/09/03 04:20:22;;;;;;;2.40;2.17;;;20.50;99.90;;;;;;5030558;28;20635;-81
2021/09/03 04:22:49;;;;;;;4.38;3.15;;;20.40;99.90;;;;;;5030687;28;20653;-72
2021/09/03 04:25:16;;;;;;;2.92;2.50;;;20.30;99.90;;;;;;5031215;28;20207;-75
2021/09/03 04:27:43;;;;;;;2.97;2.53;;;20.50;99.90;;;;;;5030530;28;20666;-72
2021/09/03 04:30:12;;;;;;;2.88;2.35;;;20.50;99.90;;;;;;5031254;28;20280;-72
2021/09/03 04:32:41;;;;;;;3.40;3.10;;;20.40;99.90;;;;;;5030513;28;20215;-79
2021/09/03 04:35:09;;;;;;;2.85;2.55;;;20.40;99.90;;;;;;5030742;28;20258;-80
2021/09/03 04:37:40;;;;;;;5.43;3.00;;;20.40;99.90;;;;;;5028499;28;20254;-71
2021/09/03 04:40:09;;;;;;;4.22;2.40;;;20.40;99.90;;;;;;5030760;28;20287;-71
2021/09/03 04:42:36;;;;;;;2.47;2.28;;;20.40;99.90;;;;;;5030003;28;20215;-77
2021/09/03 04:45:04;;;;;;;4.75;2.63;;;20.30;99.90;;;;;;5030581;28;20250;-72
2021/09/03 04:47:31;;;;;;;3.67;2.67;;;20.20;99.90;;;;;;5029874;28;20311;-71
2021/09/03 04:49:59;;;;;;;6.35;2.47;;;20.10;99.90;;;;;;5030247;28;20231;-79
2021/09/03 04:52:26;;;;;;;3.42;2.38;;;20.10;99.90;;;;;;5030520;28;20281;-80
2021/09/03 04:54:53;;;;;;;5.55;2.60;;;20.00;99.90;;;;;;5030198;28;20207;-83
2021/09/03 04:57:20;;;;;;;4.70;2.90;;;20.00;99.90;;;;;;5030108;28;20199;-71
2021/09/03 04:59:47;;;;;;;3.45;2.80;;;20.10;99.90;;;;;;5030223;28;20300;-74
2021/09/03 05:02:14;;;;;;;2.70;2.50;;;20.00;99.90;;;;;;5030136;28;20706;-70
2021/09/03 05:04:41;;;;;;;2.55;2.35;;;20.00;99.90;;;;;;5030362;28;20234;-72
2021/09/03 05:07:09;;;;;;;4.25;2.13;;;20.00;99.90;;;;;;5030750;28;20207;-73
2021/09/03 05:09:36;;;;;;;3.30;2.53;;;20.10;99.90;;;;;;5036444;28;20206;-74
2021/09/03 05:12:04;;;;;;;3.25;2.95;;;20.10;99.90;;;;;;5035023;28;20748;-74
2021/09/03 05:14:31;;;;;;;5.78;2.47;;;20.10;99.90;;;;;;5031552;28;20211;-71
2021/09/03 05:16:58;;;;;;;4.20;2.35;;;20.10;99.90;;;;;;5036757;28;20211;-73
2021/09/03 05:19:25;;;;;;;7.03;2.95;;;19.60;99.90;;;;;;5030013;28;20254;-72
2021/09/03 05:21:53;;;;;;;5.75;3.13;;;20.10;99.90;;;;;;5030599;28;20253;-71
2021/09/03 05:24:21;;;;;;;5.30;2.20;;;20.10;99.90;;;;;;5029871;28;20235;-80
2021/09/03 05:26:48;;;;;;;2.85;2.65;;;20.20;99.90;;;;;;5033378;28;20229;-84
2021/09/03 05:29:15;;;;;;;4.28;2.60;;;20.20;99.90;;;;;;5031668;28;20632;-79
2021/09/03 05:31:42;;;;;;;5.10;2.47;;;20.30;99.90;;;;;;5034434;28;20235;-81
2021/09/03 05:34:09;;;;;;;4.75;2.58;;;20.30;99.90;;;;;;5033967;28;20647;-77
2021/09/03 05:36:36;;;;;;;4.47;2.47;;;20.30;99.90;;;;;;5033473;28;20751;-76
2021/09/03 05:39:04;;;;;;;3.30;2.83;;;20.40;99.90;;;;;;5033993;28;20293;-73
2021/09/03 05:41:32;;;;;;;5.55;2.83;;;20.30;99.90;;;;;;5033235;28;20261;-74
2021/09/03 05:43:59;;;;;;;3.28;2.95;;;20.20;99.90;;;;;;5033386;28;20783;-75
2021/09/03 05:46:26;;;;;;;2.75;2.55;;;20.30;99.90;;;;;;5033383;28;20204;-71
2021/09/03 05:48:53;;;;;;;3.50;2.63;;;20.40;99.90;;;;;;5033805;28;20204;-72
2021/09/03 05:51:20;;;;;;;3.78;2.67;;;20.40;99.90;;;;;;5033267;28;20277;-73
2021/09/03 05:53:47;;;;;;;2.85;2.65;;;20.40;99.90;;;;;;5033678;28;20262;-77
2021/09/03 05:56:14;;;;;;;4.45;2.50;;;20.40;99.90;;;;;;5033146;28;20631;-77
2021/09/03 05:58:43;;;;;;;3.10;2.80;;;20.30;99.90;;;;;;5033352;28;20204;-73
2021/09/03 06:01:10;;;;;;;6.72;3.05;;;20.30;99.90;;;;;;5034025;28;20207;-78
2021/09/03 06:03:36;;;;;;;2.55;2.35;;;20.40;99.90;;;;;;5035451;28;20675;-74
2021/09/03 06:06:03;;;;;;;5.50;3.17;;;20.30;99.90;;;;;;5033609;28;20257;-78
2021/09/03 06:08:30;;;;;;;4.68;2.63;;;20.30;99.90;;;;;;5032865;28;20269;-73
2021/09/03 06:10:57;;;;;;;5.20;2.88;;;20.30;99.90;;;;;;5033233;28;20227;-77
2021/09/03 06:13:24;;;;;;;2.67;2.47;;;20.30;99.90;;;;;;5032792;28;20262;-77
2021/09/03 06:15:53;;;;;;;6.55;3.35;;;20.30;99.90;;;;;;5033370;28;20203;-77
2021/09/03 06:18:20;;;;;;;3.08;2.80;;;20.20;99.90;;;;;;5032699;28;20215;-75
2021/09/03 06:20:47;;;;;;;3.92;2.65;;;20.20;99.90;;;;;;5032959;28;20215;-72
2021/09/03 06:23:14;;;;;;;6.82;2.80;;;20.20;99.90;;;;;;5031707;28;20273;-72
2021/09/03 06:25:40;;;;;;;6.30;2.20;;;20.40;99.90;;;;;;5032744;28;20208;-73
2021/09/03 06:28:07;;;;;;;3.83;2.10;;;20.50;99.90;;;;;;5033084;28;20203;-73
2021/09/03 06:30:34;;;;;;;3.55;2.63;;;20.60;99.90;;;;;;5032599;28;20239;-74
2021/09/03 06:33:03;;;;;;;3.15;2.85;;;20.70;99.90;;;;;;5032931;28;20200;-74
2021/09/03 06:35:30;;;;;;;4.05;3.08;;;20.70;99.90;;;;;;5032433;28;20265;-72
2021/09/03 06:37:57;;;;;;;5.13;3.00;;;20.70;99.90;;;;;;5032597;28;20215;-75
2021/09/03 06:40:24;;;;;;;5.80;2.85;;;20.90;99.90;;;;;;5032632;28;20211;-73
2021/09/03 06:42:51;;;;;;;4.10;2.53;;;20.70;99.90;;;;;;5031603;28;20662;-72
2021/09/03 06:45:18;;;;;;;4.45;2.85;;;20.80;99.90;;;;;;5031730;28;20650;-70
2021/09/03 06:47:45;;;;;;;4.85;2.55;;;20.50;99.90;;;;;;5032434;28;20262;-71
2021/09/03 06:50:13;;;;;;;6.40;3.28;;;20.60;99.90;;;;;;5032640;28;20223;-72
2021/09/03 06:52:41;;;;;;;6.55;2.83;;;20.80;99.90;;;;;;5036786;28;20211;-70
2021/09/03 06:55:08;;;;;;;4.88;2.80;;;20.90;99.90;;;;;;5032708;28;20200;-70
2021/09/03 06:57:35;;;;;;;5.88;3.00;;;20.90;99.90;;;;;;5031860;28;20207;-70
2021/09/03 07:00:03;;;;;;;7.72;3.28;;;20.90;99.90;;;;;;5032714;28;20261;-71
2021/09/03 07:02:30;;;;;;;5.80;3.22;;;20.90;99.90;;;;;;5022317;28;20207;-71
2021/09/03 07:04:57;;;;;;;7.25;3.22;;;21.10;99.90;;;;;;5032296;28;20203;-72
2021/09/03 07:07:25;;;;;;;4.85;2.53;;;;;;;;;;5024684;28;20269;-71
2021/09/03 07:09:52;;;;;;;4.80;2.08;;;20.40;99.90;;;;;;5032112;28;20234;-72
2021/09/03 07:12:19;;;;;;;5.80;3.35;;;21.10;99.90;;;;;;5030601;28;20231;-70
2021/09/03 07:14:46;;;;;;;4.90;2.95;;;21.10;99.90;;;;;;5029555;28;20211;-73
2021/09/03 07:17:14;;;;;;;5.38;3.30;;;20.90;99.90;;;;;;5031186;28;20208;-73
2021/09/03 07:19:40;;;;;;;5.65;3.15;;;21.00;99.90;;;;;;5027911;28;20207;-74
2021/09/03 07:22:08;;;;;;;7.07;3.95;;;21.00;99.90;;;;;;5031114;28;20212;-72
2021/09/03 07:24:36;;;;;;;7.13;3.45;;;21.10;99.90;;;;;;5021861;28;20282;-72
2021/09/03 07:27:04;;;;;;;3.63;2.85;;;21.10;99.90;;;;;;5028351;28;20211;-80
2021/09/03 07:29:31;;;;;;;6.13;3.35;;;21.20;99.90;;;;;;5027847;28;20215;-70
2021/09/03 07:31:58;;;;;;;4.38;2.78;;;21.20;99.90;;;;;;5027956;28;20235;-75
2021/09/03 07:34:25;;;;;;;6.10;3.30;;;21.40;99.90;;;;;;5027708;28;20204;-74
2021/09/03 07:36:52;;;;;;;6.40;3.20;;;21.40;99.90;;;;;;5032896;28;20215;-71
2021/09/03 07:39:19;;;;;;;6.63;3.40;;;21.50;99.90;;;;;;5029238;28;20212;-72
2021/09/03 07:41:48;;;;;;;4.78;3.08;;;21.60;99.90;;;;;;5024021;28;20219;-74
2021/09/03 07:44:15;;;;;;;4.00;3.05;;;21.60;99.90;;;;;;5031645;28;20266;-77
2021/09/03 07:46:43;;;;;;;2.92;2.42;;;21.40;99.90;;;;;;5029434;28;20293;-76
2021/09/03 07:49:11;;;;;;;4.72;3.13;;;21.50;99.90;;;;;;5026468;28;20709;-76
2021/09/03 07:51:38;;;;;;;6.90;3.53;;;21.70;99.90;;;;;;5028064;28;20326;-72
2021/09/03 07:54:05;;;;;;;5.53;3.72;;;21.70;99.90;;;;;;5026075;28;20227;-72
2021/09/03 07:56:32;;;;;;;3.67;3.35;;;21.70;99.90;;;;;;5028625;28;20208;-74
2021/09/03 07:59:00;;;;;;;5.88;3.30;;;21.60;99.90;;;;;;5027531;28;20207;-72
2021/09/03 08:01:27;;;;;;;6.40;3.10;;;21.70;99.90;;;;;;5030509;28;20250;-69
2021/09/03 08:03:54;;;;;;;4.57;3.40;;;21.80;99.90;;;;;;5030260;28;20214;-71
2021/09/03 08:06:21;;;;;;;6.07;4.22;;;22.00;99.90;;;;;;5030972;28;20261;-71
2021/09/03 08:08:48;;;;;;;5.55;3.45;;;22.00;99.90;;;;;;5029110;28;20207;-80
2021/09/03 08:11:15;;;;;;;5.57;3.47;;;21.80;99.90;;;;;;5030796;28;20238;-73
2021/09/03 08:13:42;;;;;;;4.40;3.25;;;21.90;99.90;;;;;;5030861;28;20203;-73
2021/09/03 08:16:11;;;;;;;4.57;3.20;;;22.20;99.90;;;;;;5030999;28;20261;-73
2021/09/03 08:18:37;;;;;;;3.70;3.00;;;22.30;99.90;;;;;;5027914;28;20701;-70
2021/09/03 08:21:04;;;;;;;4.70;3.15;;;22.70;99.90;;;;;;5029971;28;20203;-72
2021/09/03 08:23:33;;;;;;;7.07;2.92;;;22.80;99.90;;;;;;5029268;28;20200;-76
2021/09/03 08:26:00;;;;;;;5.97;3.58;;;22.90;99.90;;;;;;5029792;28;20691;-75
2021/09/03 08:28:27;;;;;;;5.32;3.60;;;23.20;99.90;;;;;;5028705;28;20212;-79
2021/09/03 08:30:54;;;;;;;8.20;4.30;;;23.20;99.90;;;;;;5028329;28;20227;-74
2021/09/03 08:33:23;;;;;;;4.85;3.60;;;23.30;99.90;;;;;;5028655;28;20752;-74
2021/09/03 08:35:49;;;;;;;3.90;3.50;;;23.20;99.90;;;;;;5030144;28;20261;-72
2021/09/03 08:38:16;;;;;;;8.07;3.60;;;23.20;99.90;;;;;;5029164;28;20265;-71
2021/09/03 08:40:44;;;;;;;7.68;3.58;;;23.30;99.90;;;;;;5024583;28;20270;-76
2021/09/03 08:43:11;;;;;;;4.97;2.85;;;22.90;99.90;;;;;;5022091;28;20562;-71
2021/09/03 08:45:40;;;;;;;5.88;3.75;;;22.80;99.90;;;;;;5021729;28;20204;-74
2021/09/03 08:48:08;;;;;;;6.53;3.28;;;22.70;99.90;;;;;;5026046;28;20325;-73
2021/09/03 08:50:37;;;;;;;5.75;3.17;;;22.90;99.90;;;;;;5018710;28;20211;-72
2021/09/03 08:53:05;;;;;;;5.38;4.38;;;23.10;99.90;;;;;;5021871;28;20211;-72
2021/09/03 08:55:32;;;;;;;8.57;4.07;;;23.10;99.90;;;;;;5022060;28;20212;-72
2021/09/03 08:57:59;;;;;;;6.78;4.07;;;23.30;99.90;;;;;;5022627;28;20204;-72
2021/09/03 09:00:28;;;;;;;4.85;3.20;;;23.40;99.90;;;;;;5018917;28;20623;-72
2021/09/03 09:03:01;;;;;;;9.75;4.57;;;23.30;99.90;;;;;;5014043;28;20235;-73
2021/09/03 09:05:52;;;;;;;9.10;4.20;;;23.40;99.90;;;;;;5022709;28;20207;-72
2021/09/03 09:08:20;;;;;;;5.28;3.08;;;23.80;99.90;;;;;;5017649;28;20200;-71
2021/09/03 09:10:50;;;;;;;8.63;3.85;;;23.80;99.90;;;;;;5018452;28;20746;-72
2021/09/03 09:13:19;;;;;;;6.05;3.40;;;24.30;99.90;;;;;;5012495;28;20676;-72
2021/09/03 09:15:58;;;;;;;6.45;3.40;;;24.80;99.90;;;;;;5016409;28;20204;-72
2021/09/03 09:18:37;;;;;;;3.75;3.05;;;25.30;99.90;;;;;;5027151;28;20265;-72
2021/09/03 09:21:23;;;;;;;5.03;3.15;;;27.10;99.90;;;;;;5026729;28;20329;-72
2021/09/03 09:23:53;;;;;;;6.75;3.25;;;28.50;99.90;;;;;;5015169;28;20208;-71
2021/09/03 09:26:23;;;;;;;5.40;3.63;;;27.70;99.90;;;;;;5027036;28;20269;-72
2021/09/03 09:28:51;;;;;;;4.32;3.03;;;26.40;99.90;;;;;;5023907;28;20223;-72
2021/09/03 09:31:37;;;;;;;4.75;3.42;;;26.30;99.90;;;;;;5014571;28;20232;-71
2021/09/03 09:34:15;;;;;;;6.25;2.58;;;25.90;99.90;;;;;;5013513;28;20299;-70
2021/09/03 09:36:44;;;;;;;5.63;2.92;;;25.50;99.90;;;;;;5023328;28;20219;-70
2021/09/03 09:39:11;;;;;;;6.95;2.78;;;25.70;99.90;;;;;;5017585;28;20212;-71
2021/09/03 09:41:38;;;;;;;4.93;2.78;;;25.80;99.90;;;;;;5014839;28;20247;-71
2021/09/03 09:44:06;;;;;;;4.90;3.10;;;25.80;99.90;;;;;;5021697;28;20211;-73
2021/09/03 09:46:33;;;;;;;4.78;3.78;;;27.50;99.90;;;;;;5020878;28;20514;-71
2021/09/03 09:49:12;;;;;;;6.78;3.60;;;28.60;99.90;;;;;;5015326;28;20623;-71
2021/09/03 09:51:46;;;;;;;6.45;3.10;;;27.80;99.90;;;;;;5027455;28;20722;-71
2021/09/03 09:54:15;;;;;;;5.10;3.65;;;26.60;99.90;;;;;;5020518;28;20200;-71
2021/09/03 09:56:45;;;;;;;5.20;2.80;;;25.50;99.90;;;;;;5027563;28;20565;-71
2021/09/03 09:59:12;;;;;;;4.15;2.90;;;25.40;99.90;;;;;;5028897;28;20219;-71
2021/09/03 10:01:41;;;;;;;7.13;3.20;;;26.20;99.90;;;;;;5029288;28;20273;-72
2021/09/03 10:04:10;;;;;;;8.95;3.33;;;26.50;99.90;;;;;;5029920;28;20821;-72
2021/09/03 10:06:38;;;;;;;5.13;2.42;;;26.80;99.90;;;;;;5028851;28;20303;-72
2021/09/03 10:09:10;;;;;;;3.25;2.55;;;26.20;99.90;;;;;;5027908;28;20270;-72
2021/09/03 10:11:39;;;;;;;5.22;3.50;;;27.30;99.90;;;;;;5029327;28;20231;-72
2021/09/03 10:14:07;;;;;;;2.50;2.28;;;28.80;99.90;;;;;;5029366;28;20663;-71
2021/09/03 10:16:35;;;;;;;4.63;2.63;;;28.80;99.90;;;;;;5028068;28;20212;-72
2021/09/03 10:19:05;;;;;;;3.78;2.72;;;30.00;99.90;;;;;;5027994;28;20257;-72
2021/09/03 10:21:36;;;;;;;4.75;2.80;;;32.80;99.90;;;;;;5026303;28;20216;-73
2021/09/03 10:24:14;;;;;;;6.80;2.55;;;33.10;99.90;;;;;;5026518;28;20313;-75
2021/09/03 10:26:43;;;;;;;4.32;3.30;;;31.70;99.90;;;;;;5023396;28;20687;-72
2021/09/03 10:29:23;;;;;;;3.33;2.50;;;32.50;99.90;;;;;;5016656;28;20204;-72
2021/09/03 10:32:20;;;;;;;5.30;3.13;;;31.20;99.90;;;;;;5025698;28;20219;-73
2021/09/03 10:35:04;;;;;;;4.38;2.50;;;29.90;99.90;;;;;;5027951;28;20200;-73
2021/09/03 10:37:34;;;;;;;3.83;2.15;;;28.90;99.90;;;;;;5023687;28;20326;-74
2021/09/03 10:40:07;;;;;;;5.90;2.53;;;28.40;99.90;;;;;;5032556;28;20207;-74
2021/09/03 10:43:03;;;;;;;5.93;2.92;;;27.50;99.90;;;;;;5030480;28;20211;-73
2021/09/03 10:45:37;;;;;;;3.22;2.15;;;27.30;99.90;;;;;;5028290;28;20211;-73
2021/09/03 10:48:13;;;;;;;6.80;4.15;;;27.60;99.90;;;;;;5032342;28;20199;-73
2021/09/03 10:50:46;;;;;;;4.43;2.60;;;27.80;99.90;;;;;;5032764;28;20282;-74
2021/09/03 10:53:34;;;;;;;4.45;3.05;;;27.50;99.90;;;;;;5032473;28;20231;-74
2021/09/03 10:56:18;;;;;;;6.35;3.10;;;27.70;99.90;;;;;;5031940;28;20208;-73
2021/09/03 10:58:48;;;;;;;6.18;3.40;;;27.60;99.90;;;;;;5030987;28;20282;-72
2021/09/03 11:01:38;;;;;;;2.97;2.63;;;27.40;99.90;;;;;;5032588;28;20203;-73
2021/09/03 11:04:21;;;;;;;5.15;2.67;;;27.00;99.90;;;;;;5032294;28;20222;-74
2021/09/03 11:06:52;;;;;;;3.97;2.50;;;27.00;99.90;;;;;;5032557;28;20254;-73
2021/09/03 11:09:24;;;;;;;7.50;2.65;;;27.10;99.90;;;;;;5031458;28;20258;-73
2021/09/03 11:11:55;;;;;;;3.67;3.30;;;26.80;99.90;;;;;;5020264;28;20232;-73
2021/09/03 11:14:23;;;;;;;2.40;2.20;;;27.60;99.90;;;;;;5014784;28;20614;-72
2021/09/03 11:16:54;;;;;;;6.90;2.80;;;28.10;99.90;;;;;;5012791;28;20259;-74
2021/09/03 11:19:23;;;;;;;5.95;2.75;;;28.40;99.90;;;;;;5016277;28;20257;-73
2021/09/03 11:21:51;;;;;;;5.13;2.47;;;28.20;99.90;;;;;;5019926;28;20269;-73
2021/09/03 11:24:20;;;;;;;4.65;2.90;;;28.30;99.90;;;;;;5017664;28;20214;-73
2021/09/03 11:26:48;;;;;;;8.18;3.22;;;28.20;99.90;;;;;;5014348;28;20216;-73
2021/09/03 11:29:22;;;;;;;3.60;2.90;;;28.20;99.90;;;;;;5015170;28;20216;-74
2021/09/03 11:31:59;;;;;;;8.25;3.28;;;28.20;99.90;;;;;;5021225;28;20789;-73
2021/09/03 11:34:55;;;;;;;3.55;2.50;;;27.70;99.90;;;;;;5029394;28;20257;-73
2021/09/03 11:37:28;;;;;;;3.75;2.65;;;28.40;99.90;;;;;;5028908;28;20257;-73
2021/09/03 11:39:58;;;;;;;2.83;2.58;;;28.70;99.90;;;;;;5026049;28;20209;-72
2021/09/03 11:42:27;;;;;;;2.53;2.08;;;28.90;99.90;;;;;;5031045;28;20219;-73
2021/09/03 11:44:58;;;;;;;5.25;2.65;;;29.00;99.90;;;;;;5031321;28;20204;-73
2021/09/03 11:47:32;;;;;;;4.47;2.45;;;29.10;99.90;;;;;;5026527;28;20204;-73
2021/09/03 11:50:00;;;;;;;3.33;2.70;;;28.70;99.90;;;;;;5021446;28;20204;-75
2021/09/03 11:52:31;;;;;;;8.57;3.17;;;28.50;99.90;;;;;;5026368;28;20251;-74
2021/09/03 11:54:59;;;;;;;4.43;2.97;;;28.80;99.90;;;;;;5028030;28;20208;-73
2021/09/03 11:57:26;;;;;;;4.82;2.50;;;28.80;99.90;;;;;;5030880;28;20203;-73
2021/09/03 11:59:57;;;;;;;7.93;3.05;;;28.50;99.90;;;;;;5031332;28;20258;-73
2021/09/03 12:02:26;;;;;;;3.03;2.33;;;28.80;99.90;;;;;;5030366;28;20295;-72
2021/09/03 12:04:54;;;;;;;3.30;3.00;;;28.80;99.90;;;;;;5030607;28;20203;-71
2021/09/03 12:07:23;;;;;;;4.90;2.80;;;27.70;99.90;;;;;;5029213;28;20265;-73
2021/09/03 12:09:55;;;;;;;5.70;3.38;;;27.40;99.90;;;;;;5028380;28;20207;-72
2021/09/03 12:12:27;;;;;;;3.22;2.85;;;27.50;99.90;;;;;;5026370;28;20273;-72
2021/09/03 12:15:00;;;;;;;3.38;2.50;;;27.60;99.90;;;;;;5029572;28;20261;-72
2021/09/03 12:17:41;;;;;;;3.83;2.88;;;27.70;99.90;;;;;;5024966;28;20207;-73
2021/09/03 12:20:16;;;;;;;2.72;2.53;;;27.60;99.90;;;;;;5026837;28;20234;-73
2021/09/03 12:22:48;;;;;;;3.83;2.85;;;27.20;99.90;;;;;;5029408;28;20242;-72
2021/09/03 12:25:15;;;;;;;2.75;2.20;;;27.00;99.90;;;;;;5029924;28;20211;-72
2021/09/03 12:27:42;;;;;;;3.67;2.63;;;27.50;99.90;;;;;;5026355;28;20211;-72
2021/09/03 12:30:15;;;;;;;10.02;4.72;;;27.80;99.90;;;;;;5029717;28;20261;-73
2021/09/03 12:32:41;;;;;;;6.20;3.10;;;28.00;99.90;;;;;;5030162;28;20317;-74
2021/09/03 12:35:10;;;;;;;7.15;3.67;;;28.30;99.90;;;;;;5030866;28;20261;-73
2021/09/03 12:37:38;;;;;;;3.13;2.40;;;28.20;99.90;;;;;;5030119;28;20227;-75
2021/09/03 12:40:07;;;;;;;3.78;2.40;;;28.10;99.90;;;;;;5030106;28;20207;-72
2021/09/03 12:42:40;;;;;;;8.13;3.33;;;27.70;99.90;;;;;;5030026;28;20668;-73
2021/09/03 12:45:08;;;;;;;3.65;2.65;;;27.20;99.90;;;;;;5030258;28;20203;-73
2021/09/03 12:47:37;;;;;;;6.00;2.92;;;27.10;99.90;;;;;;5030481;28;20635;-73
2021/09/03 12:50:14;;;;;;;6.15;3.10;;;27.60;99.90;;;;;;5030227;28;20725;-73
2021/09/03 12:52:40;;;;;;;4.47;2.58;;;28.10;99.90;;;;;;5030559;28;20231;-74
2021/09/03 12:55:08;;;;;;;2.85;2.60;;;28.40;99.90;;;;;;5030144;28;20269;-75
2021/09/03 12:57:35;;;;;;;3.28;2.38;;;28.40;99.90;;;;;;5030310;28;20203;-73